sensor_id;sensor_type;location;lat;lon;timestamp;P1;durP1;ratioP1;P2;durP2;ratioP2
67278;SDS011;54193;53.746;10.058;2023-06-05T00:00:16;10.38;;;4.90;;
67278;SDS011;54193;53.746;10.058;2023-06-05T00:03:02;13.27;;;5.20;;
67278;SDS011;54193;53.746;10.058;2023-06-05T00:05:48;15.40;;;5.35;;
67278;SDS011;54193;53.746;10.058;2023-06-05T00:08:34;13.27;;;5.15;;
67278;SDS011;54193;53.746;10.058;2023-06-05T00:11:19;13.70;;;5.13;;
67278;SDS011;54193;53.746;10.058;2023-06-05T00:14:05;11.98;;;5.22;;
67278;SDS011;54193;53.746;10.058;2023-06-05T00:16:53;12.40;;;5.40;;
67278;SDS011;54193;53.746;10.058;2023-06-05T00:19:41;14.40;;;5.15;;
67278;SDS011;54193;53.746;10.058;2023-06-05T00:22:27;13.57;;;5.35;;
67278;SDS011;54193;53.746;10.058;2023-06-05T00:25:19;12.98;;;4.85;;
67278;SDS011;54193;53.746;10.058;2023-06-05T00:28:04;12.15;;;5.10;;
67278;SDS011;54193;53.746;10.058;2023-06-05T00:30:50;14.33;;;5.60;;
67278;SDS011;54193;53.746;10.058;2023-06-05T00:33:36;13.65;;;5.75;;
67278;SDS011;54193;53.746;10.058;2023-06-05T00:36:21;15.48;;;5.50;;
67278;SDS011;54193;53.746;10.058;2023-06-05T00:39:09;13.10;;;5.47;;
67278;SDS011;54193;53.746;10.058;2023-06-05T00:41:54;13.77;;;5.35;;
67278;SDS011;54193;53.746;10.058;2023-06-05T00:44:40;16.00;;;5.65;;
67278;SDS011;54193;53.746;10.058;2023-06-05T00:47:25;14.15;;;5.75;;
67278;SDS011;54193;53.746;10.058;2023-06-05T00:50:12;15.48;;;5.50;;
67278;SDS011;54193;53.746;10.058;2023-06-05T00:53:03;17.95;;;6.00;;
67278;SDS011;54193;53.746;10.058;2023-06-05T00:55:50;16.63;;;5.90;;
67278;SDS011;54193;53.746;10.058;2023-06-05T00:58:36;14.97;;;5.50;;
67278;SDS011;54193;53.746;10.058;2023-06-05T01:01:22;16.25;;;5.93;;
67278;SDS011;54193;53.746;10.058;2023-06-05T01:04:10;15.07;;;5.63;;
67278;SDS011;54193;53.746;10.058;2023-06-05T01:06:55;17.07;;;5.80;;
67278;SDS011;54193;53.746;10.058;2023-06-05T01:09:42;16.88;;;5.90;;
67278;SDS011;54193;53.746;10.058;2023-06-05T01:15:35;15.27;;;5.90;;
67278;SDS011;54193;53.746;10.058;2023-06-05T01:18:23;15.05;;;5.65;;
67278;SDS011;54193;53.746;10.058;2023-06-05T01:21:11;16.50;;;5.72;;
67278;SDS011;54193;53.746;10.058;2023-06-05T01:23:58;19.38;;;6.43;;
67278;SDS011;54193;53.746;10.058;2023-06-05T01:27:18;17.30;;;6.10;;
67278;SDS011;54193;53.746;10.058;2023-06-05T01:32:57;16.85;;;6.40;;
67278;SDS011;54193;53.746;10.058;2023-06-05T01:35:48;18.87;;;5.83;;
67278;SDS011;54193;53.746;10.058;2023-06-05T01:38:36;18.17;;;6.38;;
67278;SDS011;54193;53.746;10.058;2023-06-05T01:41:24;16.88;;;6.50;;
67278;SDS011;54193;53.746;10.058;2023-06-05T01:44:11;15.35;;;6.05;;
67278;SDS011;54193;53.746;10.058;2023-06-05T01:47:01;17.10;;;5.70;;
67278;SDS011;54193;53.746;10.058;2023-06-05T01:49:46;15.98;;;5.97;;
67278;SDS011;54193;53.746;10.058;2023-06-05T01:52:33;17.50;;;6.13;;
67278;SDS011;54193;53.746;10.058;2023-06-05T01:55:20;16.17;;;5.90;;
67278;SDS011;54193;53.746;10.058;2023-06-05T01:58:09;16.05;;;6.22;;
67278;SDS011;54193;53.746;10.058;2023-06-05T02:00:54;19.63;;;6.43;;
67278;SDS011;54193;53.746;10.058;2023-06-05T02:03:42;17.10;;;5.97;;
67278;SDS011;54193;53.746;10.058;2023-06-05T02:06:33;19.52;;;6.75;;
67278;SDS011;54193;53.746;10.058;2023-06-05T02:09:28;19.60;;;6.28;;
67278;SDS011;54193;53.746;10.058;2023-06-05T02:12:17;18.83;;;6.72;;
67278;SDS011;54193;53.746;10.058;2023-06-05T02:15:03;18.10;;;6.28;;
67278;SDS011;54193;53.746;10.058;2023-06-05T02:17:50;19.67;;;6.43;;
67278;SDS011;54193;53.746;10.058;2023-06-05T02:20:40;20.77;;;6.90;;
67278;SDS011;54193;53.746;10.058;2023-06-05T02:23:26;21.17;;;6.40;;
67278;SDS011;54193;53.746;10.058;2023-06-05T02:26:11;18.92;;;6.78;;
67278;SDS011;54193;53.746;10.058;2023-06-05T02:28:57;16.83;;;5.93;;
67278;SDS011;54193;53.746;10.058;2023-06-05T02:31:43;18.60;;;6.23;;
67278;SDS011;54193;53.746;10.058;2023-06-05T02:34:29;14.38;;;5.68;;
67278;SDS011;54193;53.746;10.058;2023-06-05T02:37:15;16.27;;;5.43;;
67278;SDS011;54193;53.746;10.058;2023-06-05T02:40:00;16.92;;;6.25;;
67278;SDS011;54193;53.746;10.058;2023-06-05T02:42:46;16.60;;;6.05;;
67278;SDS011;54193;53.746;10.058;2023-06-05T02:45:35;16.17;;;5.72;;
67278;SDS011;54193;53.746;10.058;2023-06-05T02:48:20;16.55;;;5.43;;
67278;SDS011;54193;53.746;10.058;2023-06-05T02:51:08;16.73;;;5.73;;
67278;SDS011;54193;53.746;10.058;2023-06-05T02:53:56;21.30;;;6.22;;
67278;SDS011;54193;53.746;10.058;2023-06-05T02:56:42;15.63;;;5.70;;
67278;SDS011;54193;53.746;10.058;2023-06-05T02:59:29;15.13;;;5.57;;
67278;SDS011;54193;53.746;10.058;2023-06-05T03:02:17;14.18;;;5.22;;
67278;SDS011;54193;53.746;10.058;2023-06-05T03:05:03;16.70;;;5.82;;
67278;SDS011;54193;53.746;10.058;2023-06-05T03:07:49;17.55;;;5.85;;
67278;SDS011;54193;53.746;10.058;2023-06-05T03:10:38;15.90;;;5.70;;
67278;SDS011;54193;53.746;10.058;2023-06-05T03:13:24;15.35;;;5.60;;
67278;SDS011;54193;53.746;10.058;2023-06-05T03:16:09;18.73;;;6.70;;
67278;SDS011;54193;53.746;10.058;2023-06-05T03:18:55;23.83;;;7.47;;
67278;SDS011;54193;53.746;10.058;2023-06-05T03:21:41;21.23;;;7.25;;
67278;SDS011;54193;53.746;10.058;2023-06-05T03:24:28;25.65;;;7.90;;
67278;SDS011;54193;53.746;10.058;2023-06-05T03:27:13;24.43;;;7.93;;
67278;SDS011;54193;53.746;10.058;2023-06-05T03:29:59;24.73;;;7.53;;
67278;SDS011;54193;53.746;10.058;2023-06-05T03:32:45;21.27;;;6.82;;
67278;SDS011;54193;53.746;10.058;2023-06-05T03:35:32;23.55;;;7.97;;
67278;SDS011;54193;53.746;10.058;2023-06-05T03:38:18;24.70;;;7.60;;
67278;SDS011;54193;53.746;10.058;2023-06-05T03:41:04;24.00;;;7.90;;
67278;SDS011;54193;53.746;10.058;2023-06-05T03:43:49;22.52;;;7.30;;
67278;SDS011;54193;53.746;10.058;2023-06-05T03:46:35;20.73;;;7.33;;
67278;SDS011;54193;53.746;10.058;2023-06-05T03:49:21;22.77;;;7.72;;
67278;SDS011;54193;53.746;10.058;2023-06-05T03:52:07;26.40;;;8.77;;
67278;SDS011;54193;53.746;10.058;2023-06-05T03:54:53;27.07;;;8.57;;
67278;SDS011;54193;53.746;10.058;2023-06-05T03:57:40;26.60;;;9.10;;
67278;SDS011;54193;53.746;10.058;2023-06-05T04:00:26;27.27;;;8.88;;
67278;SDS011;54193;53.746;10.058;2023-06-05T04:03:12;27.20;;;8.15;;
67278;SDS011;54193;53.746;10.058;2023-06-05T04:05:58;26.27;;;7.88;;
67278;SDS011;54193;53.746;10.058;2023-06-05T04:08:43;25.65;;;8.40;;
67278;SDS011;54193;53.746;10.058;2023-06-05T04:11:29;23.58;;;8.48;;
67278;SDS011;54193;53.746;10.058;2023-06-05T04:14:17;25.53;;;8.03;;
67278;SDS011;54193;53.746;10.058;2023-06-05T04:17:02;27.20;;;8.52;;
67278;SDS011;54193;53.746;10.058;2023-06-05T04:19:48;19.77;;;7.57;;
67278;SDS011;54193;53.746;10.058;2023-06-05T04:22:34;24.57;;;7.87;;
67278;SDS011;54193;53.746;10.058;2023-06-05T04:25:20;20.05;;;7.40;;
67278;SDS011;54193;53.746;10.058;2023-06-05T04:28:06;22.23;;;7.82;;
67278;SDS011;54193;53.746;10.058;2023-06-05T04:30:52;23.23;;;8.52;;
67278;SDS011;54193;53.746;10.058;2023-06-05T04:33:38;21.35;;;7.90;;
67278;SDS011;54193;53.746;10.058;2023-06-05T04:36:24;22.17;;;7.57;;
67278;SDS011;54193;53.746;10.058;2023-06-05T04:39:11;20.55;;;7.95;;
67278;SDS011;54193;53.746;10.058;2023-06-05T04:41:59;18.63;;;7.57;;
67278;SDS011;54193;53.746;10.058;2023-06-05T04:44:47;20.98;;;7.78;;
67278;SDS011;54193;53.746;10.058;2023-06-05T04:47:41;20.23;;;7.43;;
67278;SDS011;54193;53.746;10.058;2023-06-05T04:50:27;22.00;;;8.07;;
67278;SDS011;54193;53.746;10.058;2023-06-05T04:53:13;20.17;;;7.22;;
67278;SDS011;54193;53.746;10.058;2023-06-05T04:55:59;21.95;;;7.22;;
67278;SDS011;54193;53.746;10.058;2023-06-05T04:58:45;20.40;;;7.97;;
67278;SDS011;54193;53.746;10.058;2023-06-05T05:01:32;20.85;;;7.75;;
67278;SDS011;54193;53.746;10.058;2023-06-05T05:04:18;21.15;;;7.68;;
67278;SDS011;54193;53.746;10.058;2023-06-05T05:07:04;19.75;;;7.80;;
67278;SDS011;54193;53.746;10.058;2023-06-05T05:09:50;20.10;;;7.17;;
67278;SDS011;54193;53.746;10.058;2023-06-05T05:12:36;22.35;;;7.03;;
67278;SDS011;54193;53.746;10.058;2023-06-05T05:15:22;17.45;;;7.20;;
67278;SDS011;54193;53.746;10.058;2023-06-05T05:18:08;20.50;;;7.30;;
67278;SDS011;54193;53.746;10.058;2023-06-05T05:20:54;21.75;;;7.38;;
67278;SDS011;54193;53.746;10.058;2023-06-05T05:23:39;18.98;;;7.00;;
67278;SDS011;54193;53.746;10.058;2023-06-05T05:26:25;18.63;;;6.82;;
67278;SDS011;54193;53.746;10.058;2023-06-05T05:29:11;18.27;;;7.05;;
67278;SDS011;54193;53.746;10.058;2023-06-05T05:31:57;20.25;;;7.28;;
67278;SDS011;54193;53.746;10.058;2023-06-05T05:34:42;19.67;;;7.40;;
67278;SDS011;54193;53.746;10.058;2023-06-05T05:37:28;16.27;;;6.37;;
67278;SDS011;54193;53.746;10.058;2023-06-05T05:40:14;19.77;;;7.45;;
67278;SDS011;54193;53.746;10.058;2023-06-05T05:42:59;20.00;;;7.13;;
67278;SDS011;54193;53.746;10.058;2023-06-05T05:45:45;18.53;;;6.60;;
67278;SDS011;54193;53.746;10.058;2023-06-05T05:48:31;17.38;;;6.53;;
67278;SDS011;54193;53.746;10.058;2023-06-05T05:51:20;16.38;;;6.70;;
67278;SDS011;54193;53.746;10.058;2023-06-05T05:54:06;21.42;;;6.88;;
67278;SDS011;54193;53.746;10.058;2023-06-05T05:56:52;17.88;;;6.85;;
67278;SDS011;54193;53.746;10.058;2023-06-05T05:59:39;22.25;;;6.43;;
67278;SDS011;54193;53.746;10.058;2023-06-05T06:02:27;15.52;;;6.25;;
67278;SDS011;54193;53.746;10.058;2023-06-05T06:05:13;16.77;;;6.90;;
67278;SDS011;54193;53.746;10.058;2023-06-05T06:07:58;17.85;;;6.40;;
67278;SDS011;54193;53.746;10.058;2023-06-05T06:10:44;18.63;;;6.85;;
67278;SDS011;54193;53.746;10.058;2023-06-05T06:13:32;14.77;;;6.17;;
67278;SDS011;54193;53.746;10.058;2023-06-05T06:16:21;14.65;;;6.50;;
67278;SDS011;54193;53.746;10.058;2023-06-05T06:19:06;16.20;;;6.75;;
67278;SDS011;54193;53.746;10.058;2023-06-05T06:21:52;16.88;;;6.85;;
67278;SDS011;54193;53.746;10.058;2023-06-05T06:24:41;13.52;;;5.78;;
67278;SDS011;54193;53.746;10.058;2023-06-05T06:27:27;14.70;;;6.25;;
67278;SDS011;54193;53.746;10.058;2023-06-05T06:30:13;14.73;;;5.93;;
67278;SDS011;54193;53.746;10.058;2023-06-05T06:32:59;15.37;;;6.23;;
67278;SDS011;54193;53.746;10.058;2023-06-05T06:35:45;13.15;;;6.10;;
67278;SDS011;54193;53.746;10.058;2023-06-05T06:38:31;11.25;;;5.15;;
67278;SDS011;54193;53.746;10.058;2023-06-05T06:41:17;12.90;;;6.30;;
67278;SDS011;54193;53.746;10.058;2023-06-05T06:44:03;12.68;;;5.68;;
67278;SDS011;54193;53.746;10.058;2023-06-05T06:46:49;12.63;;;5.55;;
67278;SDS011;54193;53.746;10.058;2023-06-05T06:49:35;11.48;;;5.82;;
67278;SDS011;54193;53.746;10.058;2023-06-05T06:52:21;12.43;;;5.57;;
67278;SDS011;54193;53.746;10.058;2023-06-05T06:55:07;13.88;;;5.85;;
67278;SDS011;54193;53.746;10.058;2023-06-05T06:57:53;12.55;;;5.47;;
67278;SDS011;54193;53.746;10.058;2023-06-05T07:00:39;12.80;;;6.10;;
67278;SDS011;54193;53.746;10.058;2023-06-05T07:03:26;12.55;;;5.97;;
67278;SDS011;54193;53.746;10.058;2023-06-05T07:06:11;10.68;;;5.47;;
67278;SDS011;54193;53.746;10.058;2023-06-05T07:08:58;10.43;;;4.75;;
67278;SDS011;54193;53.746;10.058;2023-06-05T07:11:43;12.65;;;5.30;;
67278;SDS011;54193;53.746;10.058;2023-06-05T07:14:29;11.32;;;5.20;;
67278;SDS011;54193;53.746;10.058;2023-06-05T07:17:15;11.27;;;5.38;;
67278;SDS011;54193;53.746;10.058;2023-06-05T07:20:01;12.87;;;5.43;;
67278;SDS011;54193;53.746;10.058;2023-06-05T07:22:48;11.88;;;5.78;;
67278;SDS011;54193;53.746;10.058;2023-06-05T07:25:33;10.60;;;5.82;;
67278;SDS011;54193;53.746;10.058;2023-06-05T07:28:19;9.47;;;5.10;;
67278;SDS011;54193;53.746;10.058;2023-06-05T07:31:05;9.95;;;5.38;;
67278;SDS011;54193;53.746;10.058;2023-06-05T07:33:50;11.75;;;5.05;;
67278;SDS011;54193;53.746;10.058;2023-06-05T07:36:36;12.30;;;5.30;;
67278;SDS011;54193;53.746;10.058;2023-06-05T07:39:22;8.95;;;4.80;;
67278;SDS011;54193;53.746;10.058;2023-06-05T07:42:08;9.05;;;5.05;;
67278;SDS011;54193;53.746;10.058;2023-06-05T07:44:53;11.43;;;5.03;;
67278;SDS011;54193;53.746;10.058;2023-06-05T07:47:39;8.70;;;4.90;;
67278;SDS011;54193;53.746;10.058;2023-06-05T07:50:24;11.00;;;5.60;;
67278;SDS011;54193;53.746;10.058;2023-06-05T07:53:11;9.73;;;5.35;;
67278;SDS011;54193;53.746;10.058;2023-06-05T07:55:56;10.33;;;4.60;;
67278;SDS011;54193;53.746;10.058;2023-06-05T07:58:42;11.82;;;5.28;;
67278;SDS011;54193;53.746;10.058;2023-06-05T08:01:31;11.25;;;4.90;;
67278;SDS011;54193;53.746;10.058;2023-06-05T08:04:21;11.35;;;4.93;;
67278;SDS011;54193;53.746;10.058;2023-06-05T08:07:10;7.85;;;4.10;;
67278;SDS011;54193;53.746;10.058;2023-06-05T08:09:56;10.95;;;5.20;;
67278;SDS011;54193;53.746;10.058;2023-06-05T08:12:42;10.15;;;4.80;;
67278;SDS011;54193;53.746;10.058;2023-06-05T08:15:28;9.17;;;4.30;;
67278;SDS011;54193;53.746;10.058;2023-06-05T08:18:14;9.68;;;4.63;;
67278;SDS011;54193;53.746;10.058;2023-06-05T08:21:00;8.70;;;4.50;;
67278;SDS011;54193;53.746;10.058;2023-06-05T08:23:46;9.03;;;4.47;;
67278;SDS011;54193;53.746;10.058;2023-06-05T08:26:31;9.77;;;4.30;;
67278;SDS011;54193;53.746;10.058;2023-06-05T08:29:17;10.90;;;4.70;;
67278;SDS011;54193;53.746;10.058;2023-06-05T08:32:03;7.95;;;4.45;;
67278;SDS011;54193;53.746;10.058;2023-06-05T08:34:50;8.30;;;4.07;;
67278;SDS011;54193;53.746;10.058;2023-06-05T08:37:36;9.02;;;4.80;;
67278;SDS011;54193;53.746;10.058;2023-06-05T08:40:22;10.02;;;4.60;;
67278;SDS011;54193;53.746;10.058;2023-06-05T08:43:09;9.27;;;4.65;;
67278;SDS011;54193;53.746;10.058;2023-06-05T08:45:56;10.10;;;4.63;;
67278;SDS011;54193;53.746;10.058;2023-06-05T08:48:45;8.23;;;4.22;;
67278;SDS011;54193;53.746;10.058;2023-06-05T08:51:32;9.27;;;4.85;;
67278;SDS011;54193;53.746;10.058;2023-06-05T08:54:18;8.57;;;4.60;;
67278;SDS011;54193;53.746;10.058;2023-06-05T08:57:06;8.27;;;4.40;;
67278;SDS011;54193;53.746;10.058;2023-06-05T08:59:52;8.07;;;3.80;;
67278;SDS011;54193;53.746;10.058;2023-06-05T09:02:38;9.43;;;4.20;;
67278;SDS011;54193;53.746;10.058;2023-06-05T09:05:28;9.57;;;4.40;;
67278;SDS011;54193;53.746;10.058;2023-06-05T09:08:16;7.57;;;3.83;;
67278;SDS011;54193;53.746;10.058;2023-06-05T09:14:10;8.88;;;4.45;;
67278;SDS011;54193;53.746;10.058;2023-06-05T09:16:58;8.23;;;4.25;;
67278;SDS011;54193;53.746;10.058;2023-06-05T09:19:45;7.40;;;4.07;;
67278;SDS011;54193;53.746;10.058;2023-06-05T09:22:32;9.10;;;4.22;;
67278;SDS011;54193;53.746;10.058;2023-06-05T09:25:19;7.57;;;4.20;;
67278;SDS011;54193;53.746;10.058;2023-06-05T09:28:05;7.88;;;4.00;;
67278;SDS011;54193;53.746;10.058;2023-06-05T09:30:58;7.57;;;4.20;;
67278;SDS011;54193;53.746;10.058;2023-06-05T09:33:53;8.13;;;3.78;;
67278;SDS011;54193;53.746;10.058;2023-06-05T09:36:46;6.70;;;4.20;;
67278;SDS011;54193;53.746;10.058;2023-06-05T09:39:33;6.72;;;3.88;;
67278;SDS011;54193;53.746;10.058;2023-06-05T09:42:30;6.95;;;4.15;;
67278;SDS011;54193;53.746;10.058;2023-06-05T09:45:17;7.10;;;4.40;;
67278;SDS011;54193;53.746;10.058;2023-06-05T09:48:13;8.30;;;4.07;;
67278;SDS011;54193;53.746;10.058;2023-06-05T09:51:07;7.70;;;4.13;;
67278;SDS011;54193;53.746;10.058;2023-06-05T09:54:00;8.38;;;4.97;;
67278;SDS011;54193;53.746;10.058;2023-06-05T09:56:47;7.77;;;4.27;;
67278;SDS011;54193;53.746;10.058;2023-06-05T09:59:40;7.22;;;3.95;;
67278;SDS011;54193;53.746;10.058;2023-06-05T10:02:32;8.63;;;3.92;;
67278;SDS011;54193;53.746;10.058;2023-06-05T10:05:20;7.55;;;3.28;;
67278;SDS011;54193;53.746;10.058;2023-06-05T10:08:07;5.55;;;3.20;;
67278;SDS011;54193;53.746;10.058;2023-06-05T10:10:52;6.05;;;3.30;;
67278;SDS011;54193;53.746;10.058;2023-06-05T10:13:38;7.13;;;3.35;;
67278;SDS011;54193;53.746;10.058;2023-06-05T10:16:25;6.37;;;3.17;;
67278;SDS011;54193;53.746;10.058;2023-06-05T10:19:13;6.00;;;3.15;;
67278;SDS011;54193;53.746;10.058;2023-06-05T10:22:00;6.05;;;3.40;;
67278;SDS011;54193;53.746;10.058;2023-06-05T10:24:47;7.03;;;3.30;;
67278;SDS011;54193;53.746;10.058;2023-06-05T10:34:18;7.32;;;3.63;;
67278;SDS011;54193;53.746;10.058;2023-06-05T10:41:02;7.38;;;3.47;;
67278;SDS011;54193;53.746;10.058;2023-06-05T10:43:51;6.55;;;3.35;;
67278;SDS011;54193;53.746;10.058;2023-06-05T10:46:37;8.05;;;2.92;;
67278;SDS011;54193;53.746;10.058;2023-06-05T10:49:24;6.87;;;3.40;;
67278;SDS011;54193;53.746;10.058;2023-06-05T10:52:34;6.38;;;3.53;;
67278;SDS011;54193;53.746;10.058;2023-06-05T10:55:22;7.65;;;3.20;;
67278;SDS011;54193;53.746;10.058;2023-06-05T10:58:09;7.43;;;3.63;;
67278;SDS011;54193;53.746;10.058;2023-06-05T11:01:18;6.25;;;3.40;;
67278;SDS011;54193;53.746;10.058;2023-06-05T11:04:05;7.85;;;3.95;;
67278;SDS011;54193;53.746;10.058;2023-06-05T11:15:37;7.10;;;3.35;;
67278;SDS011;54193;53.746;10.058;2023-06-05T11:18:27;5.90;;;3.30;;
67278;SDS011;54193;53.746;10.058;2023-06-05T11:21:14;7.07;;;3.33;;
67278;SDS011;54193;53.746;10.058;2023-06-05T11:24:15;7.20;;;3.20;;
67278;SDS011;54193;53.746;10.058;2023-06-05T11:27:03;5.90;;;3.28;;
67278;SDS011;54193;53.746;10.058;2023-06-05T11:29:49;5.83;;;2.97;;
67278;SDS011;54193;53.746;10.058;2023-06-05T11:32:38;5.40;;;2.90;;
67278;SDS011;54193;53.746;10.058;2023-06-05T11:35:26;6.32;;;3.08;;
67278;SDS011;54193;53.746;10.058;2023-06-05T11:38:17;4.82;;;2.92;;
67278;SDS011;54193;53.746;10.058;2023-06-05T11:41:06;7.32;;;3.50;;
67278;SDS011;54193;53.746;10.058;2023-06-05T11:43:53;6.03;;;3.30;;
67278;SDS011;54193;53.746;10.058;2023-06-05T11:46:41;6.63;;;3.03;;
67278;SDS011;54193;53.746;10.058;2023-06-05T11:49:28;6.10;;;3.30;;
67278;SDS011;54193;53.746;10.058;2023-06-05T11:52:18;6.53;;;3.58;;
67278;SDS011;54193;53.746;10.058;2023-06-05T11:57:59;6.10;;;2.97;;
67278;SDS011;54193;53.746;10.058;2023-06-05T12:00:46;5.68;;;3.00;;
67278;SDS011;54193;53.746;10.058;2023-06-05T12:03:31;5.60;;;2.90;;
67278;SDS011;54193;53.746;10.058;2023-06-05T12:06:17;6.30;;;3.20;;
67278;SDS011;54193;53.746;10.058;2023-06-05T12:09:09;6.83;;;3.20;;
67278;SDS011;54193;53.746;10.058;2023-06-05T12:12:05;6.32;;;3.30;;
67278;SDS011;54193;53.746;10.058;2023-06-05T12:14:54;5.85;;;2.95;;
67278;SDS011;54193;53.746;10.058;2023-06-05T12:17:41;5.57;;;3.20;;
67278;SDS011;54193;53.746;10.058;2023-06-05T12:20:39;7.70;;;3.25;;
67278;SDS011;54193;53.746;10.058;2023-06-05T12:23:25;5.30;;;3.10;;
67278;SDS011;54193;53.746;10.058;2023-06-05T12:26:11;5.22;;;3.15;;
67278;SDS011;54193;53.746;10.058;2023-06-05T12:29:03;5.72;;;3.30;;
67278;SDS011;54193;53.746;10.058;2023-06-05T12:31:53;5.65;;;3.00;;
67278;SDS011;54193;53.746;10.058;2023-06-05T12:34:40;5.85;;;2.78;;
67278;SDS011;54193;53.746;10.058;2023-06-05T12:37:31;5.90;;;3.30;;
67278;SDS011;54193;53.746;10.058;2023-06-05T12:40:19;6.28;;;3.03;;
67278;SDS011;54193;53.746;10.058;2023-06-05T12:43:15;6.00;;;3.20;;
67278;SDS011;54193;53.746;10.058;2023-06-05T12:46:05;5.18;;;2.90;;
67278;SDS011;54193;53.746;10.058;2023-06-05T12:48:51;8.48;;;3.70;;
67278;SDS011;54193;53.746;10.058;2023-06-05T12:51:37;6.57;;;3.20;;
67278;SDS011;54193;53.746;10.058;2023-06-05T12:54:23;7.95;;;3.10;;
67278;SDS011;54193;53.746;10.058;2023-06-05T12:57:08;5.83;;;2.73;;
67278;SDS011;54193;53.746;10.058;2023-06-05T12:59:54;6.03;;;4.00;;
67278;SDS011;54193;53.746;10.058;2023-06-05T13:02:43;5.47;;;3.30;;
67278;SDS011;54193;53.746;10.058;2023-06-05T13:05:33;6.30;;;3.40;;
67278;SDS011;54193;53.746;10.058;2023-06-05T13:08:19;6.82;;;3.38;;
67278;SDS011;54193;53.746;10.058;2023-06-05T13:11:04;7.35;;;2.88;;
67278;SDS011;54193;53.746;10.058;2023-06-05T13:13:50;5.40;;;2.72;;
67278;SDS011;54193;53.746;10.058;2023-06-05T13:16:36;5.22;;;2.92;;
67278;SDS011;54193;53.746;10.058;2023-06-05T13:19:21;5.43;;;2.97;;
67278;SDS011;54193;53.746;10.058;2023-06-05T13:22:07;6.50;;;2.60;;
67278;SDS011;54193;53.746;10.058;2023-06-05T13:24:53;4.93;;;2.80;;
67278;SDS011;54193;53.746;10.058;2023-06-05T13:27:38;7.60;;;3.20;;
67278;SDS011;54193;53.746;10.058;2023-06-05T13:30:24;6.00;;;3.20;;
67278;SDS011;54193;53.746;10.058;2023-06-05T13:33:10;5.03;;;2.83;;
67278;SDS011;54193;53.746;10.058;2023-06-05T13:35:56;4.38;;;2.58;;
67278;SDS011;54193;53.746;10.058;2023-06-05T13:38:42;5.90;;;2.72;;
67278;SDS011;54193;53.746;10.058;2023-06-05T13:41:28;5.93;;;3.10;;
67278;SDS011;54193;53.746;10.058;2023-06-05T13:44:14;6.93;;;3.28;;
67278;SDS011;54193;53.746;10.058;2023-06-05T13:47:00;5.45;;;3.00;;
67278;SDS011;54193;53.746;10.058;2023-06-05T13:49:48;6.05;;;2.70;;
67278;SDS011;54193;53.746;10.058;2023-06-05T13:52:34;4.47;;;2.80;;
67278;SDS011;54193;53.746;10.058;2023-06-05T13:55:20;5.65;;;3.20;;
67278;SDS011;54193;53.746;10.058;2023-06-05T13:58:05;5.95;;;3.00;;
67278;SDS011;54193;53.746;10.058;2023-06-05T14:00:52;5.27;;;2.77;;
67278;SDS011;54193;53.746;10.058;2023-06-05T14:03:38;6.65;;;3.00;;
67278;SDS011;54193;53.746;10.058;2023-06-05T14:06:23;6.35;;;3.00;;
67278;SDS011;54193;53.746;10.058;2023-06-05T14:09:09;4.85;;;3.00;;
67278;SDS011;54193;53.746;10.058;2023-06-05T14:11:55;5.33;;;3.07;;
67278;SDS011;54193;53.746;10.058;2023-06-05T14:14:41;5.25;;;3.03;;
67278;SDS011;54193;53.746;10.058;2023-06-05T14:17:27;5.65;;;3.00;;
67278;SDS011;54193;53.746;10.058;2023-06-05T14:20:13;6.78;;;3.10;;
67278;SDS011;54193;53.746;10.058;2023-06-05T14:22:59;6.15;;;3.30;;
67278;SDS011;54193;53.746;10.058;2023-06-05T14:25:45;5.10;;;2.90;;
67278;SDS011;54193;53.746;10.058;2023-06-05T14:28:31;5.13;;;3.20;;
67278;SDS011;54193;53.746;10.058;2023-06-05T14:31:16;5.82;;;2.90;;
67278;SDS011;54193;53.746;10.058;2023-06-05T14:34:02;4.85;;;3.05;;
67278;SDS011;54193;53.746;10.058;2023-06-05T14:36:48;5.30;;;3.17;;
67278;SDS011;54193;53.746;10.058;2023-06-05T14:39:36;4.60;;;2.90;;
67278;SDS011;54193;53.746;10.058;2023-06-05T14:42:22;4.80;;;3.00;;
67278;SDS011;54193;53.746;10.058;2023-06-05T14:45:09;5.05;;;3.15;;
67278;SDS011;54193;53.746;10.058;2023-06-05T14:47:55;5.07;;;2.97;;
67278;SDS011;54193;53.746;10.058;2023-06-05T14:50:40;7.45;;;3.33;;
67278;SDS011;54193;53.746;10.058;2023-06-05T14:53:26;6.20;;;3.10;;
67278;SDS011;54193;53.746;10.058;2023-06-05T14:56:12;5.70;;;2.87;;
67278;SDS011;54193;53.746;10.058;2023-06-05T14:58:58;4.88;;;3.03;;
67278;SDS011;54193;53.746;10.058;2023-06-05T15:01:43;6.10;;;3.13;;
67278;SDS011;54193;53.746;10.058;2023-06-05T15:04:29;6.03;;;3.20;;
67278;SDS011;54193;53.746;10.058;2023-06-05T15:07:19;5.90;;;3.33;;
67278;SDS011;54193;53.746;10.058;2023-06-05T15:10:08;5.82;;;3.20;;
67278;SDS011;54193;53.746;10.058;2023-06-05T15:12:56;6.80;;;3.43;;
67278;SDS011;54193;53.746;10.058;2023-06-05T15:15:42;6.47;;;3.10;;
67278;SDS011;54193;53.746;10.058;2023-06-05T15:18:28;5.68;;;3.20;;
67278;SDS011;54193;53.746;10.058;2023-06-05T15:21:13;6.37;;;3.60;;
67278;SDS011;54193;53.746;10.058;2023-06-05T15:23:59;6.30;;;3.40;;
67278;SDS011;54193;53.746;10.058;2023-06-05T15:26:45;4.70;;;3.13;;
67278;SDS011;54193;53.746;10.058;2023-06-05T15:29:30;6.05;;;3.22;;
67278;SDS011;54193;53.746;10.058;2023-06-05T15:32:16;4.93;;;3.03;;
67278;SDS011;54193;53.746;10.058;2023-06-05T15:35:02;5.53;;;3.10;;
67278;SDS011;54193;53.746;10.058;2023-06-05T15:37:47;7.25;;;3.28;;
67278;SDS011;54193;53.746;10.058;2023-06-05T15:40:33;6.05;;;3.30;;
67278;SDS011;54193;53.746;10.058;2023-06-05T15:43:19;4.73;;;2.90;;
67278;SDS011;54193;53.746;10.058;2023-06-05T15:46:04;5.75;;;2.70;;
67278;SDS011;54193;53.746;10.058;2023-06-05T15:48:50;4.85;;;2.80;;
67278;SDS011;54193;53.746;10.058;2023-06-05T15:51:36;4.70;;;3.08;;
67278;SDS011;54193;53.746;10.058;2023-06-05T15:54:22;7.75;;;3.80;;
67278;SDS011;54193;53.746;10.058;2023-06-05T15:57:08;6.15;;;3.25;;
67278;SDS011;54193;53.746;10.058;2023-06-05T15:59:55;7.95;;;3.40;;
67278;SDS011;54193;53.746;10.058;2023-06-05T16:02:40;7.57;;;3.20;;
67278;SDS011;54193;53.746;10.058;2023-06-05T16:05:26;5.95;;;3.15;;
67278;SDS011;54193;53.746;10.058;2023-06-05T16:08:12;6.25;;;3.10;;
67278;SDS011;54193;53.746;10.058;2023-06-05T16:10:57;6.07;;;3.28;;
67278;SDS011;54193;53.746;10.058;2023-06-05T16:13:46;5.50;;;3.30;;
67278;SDS011;54193;53.746;10.058;2023-06-05T16:16:33;6.05;;;3.20;;
67278;SDS011;54193;53.746;10.058;2023-06-05T16:19:19;4.78;;;3.13;;
67278;SDS011;54193;53.746;10.058;2023-06-05T16:22:05;6.47;;;3.25;;
67278;SDS011;54193;53.746;10.058;2023-06-05T16:24:51;5.97;;;3.22;;
67278;SDS011;54193;53.746;10.058;2023-06-05T16:27:37;5.30;;;3.40;;
67278;SDS011;54193;53.746;10.058;2023-06-05T16:30:23;6.20;;;2.78;;
67278;SDS011;54193;53.746;10.058;2023-06-05T16:33:09;5.97;;;3.37;;
67278;SDS011;54193;53.746;10.058;2023-06-05T16:35:54;6.38;;;3.42;;
67278;SDS011;54193;53.746;10.058;2023-06-05T16:38:43;6.43;;;3.42;;
67278;SDS011;54193;53.746;10.058;2023-06-05T16:41:29;6.80;;;3.20;;
67278;SDS011;54193;53.746;10.058;2023-06-05T16:44:15;6.20;;;3.00;;
67278;SDS011;54193;53.746;10.058;2023-06-05T16:47:00;5.35;;;3.40;;
67278;SDS011;54193;53.746;10.058;2023-06-05T16:49:46;6.68;;;3.20;;
67278;SDS011;54193;53.746;10.058;2023-06-05T16:52:32;6.68;;;3.17;;
67278;SDS011;54193;53.746;10.058;2023-06-05T16:55:17;6.05;;;3.15;;